Jesenik, Czech Republic
Current Conditions -  °F | °C
As of 11:30 PM on Friday 28 Nov 2014 (Local Time) from LKMT Reporting Station
Haze Haze  
Wind Chill: 25°   Ceiling: 900
Heat Index: 32°   Visibility: 2.5mi
Dew Point: 28°   Wind: 8mph
Humidity: 87%   Direction: 60°ENE
Pressure: 30.15"   Gusts: NA
Location:  50.23°N, 17.2°E
Report Text: LKMT 282130Z 06007KT 4000 BR OVC009 M00/M02 Q1021 NOSIG
Loading
Personal Weather Stations






























Interactive Weather Map New forecast layout! Learn more

10-Day Weather Forecast

Advertisements
Track Severe Weather on mobile